Time;durP1;ratioP1;P1;durP2;ratioP2;P2;SDS_P1;SDS_P2;PMS_P1;PMS_P2;Temp;Humidity;BMP_temperature;BMP_pressure;BME280_temperature;BME280_humidity;BME280_pressure;Samples;Min_cycle;Max_cycle;Signal;HPM_P1;HPM_P2
2023/08/02 00:02:23;;;;;;;7.70;1.80;;;16.80;99.90;;;;;;5033812;28;20056;-80
2023/08/02 00:04:53;;;;;;;11.82;2.40;;;16.80;99.90;;;;;;5029398;28;20054;-85
2023/08/02 00:07:22;;;;;;;11.68;2.05;;;16.80;99.90;;;;;;5029883;28;20097;-84
2023/08/02 00:09:48;;;;;;;11.38;1.92;;;16.80;99.90;;;;;;5031231;28;20045;-85
2023/08/02 00:12:15;;;;;;;11.38;2.28;;;16.80;99.90;;;;;;5042566;28;20041;-84
2023/08/02 00:14:42;;;;;;;10.45;2.42;;;16.80;99.90;;;;;;5036862;28;20095;-83
2023/08/02 00:17:09;;;;;;;15.32;2.88;;;16.80;99.90;;;;;;5037686;28;20037;-85
2023/08/02 00:19:36;;;;;;;7.82;2.03;;;16.70;99.90;;;;;;5033505;28;20038;-84
2023/08/02 00:22:03;;;;;;;8.25;1.98;;;16.70;99.90;;;;;;5019743;28;20049;-85
2023/08/02 00:24:29;;;;;;;8.43;2.55;;;16.70;99.90;;;;;;5032614;28;20053;-82
2023/08/02 00:26:56;;;;;;;10.60;2.08;;;16.70;99.90;;;;;;5047060;28;20403;-86
2023/08/02 00:29:23;;;;;;;14.75;2.20;;;16.70;99.90;;;;;;5019688;28;20054;-83
2023/08/02 00:31:50;;;;;;;10.57;1.75;;;16.70;99.90;;;;;;5045135;28;20045;-86
2023/08/02 00:34:17;;;;;;;9.43;1.80;;;16.60;99.90;;;;;;5038719;28;20037;-85
2023/08/02 00:39:48;;;;;;;7.72;2.05;;;16.50;99.90;;;;;;5045278;28;20187;-84
2023/08/02 00:42:15;;;;;;;8.80;2.10;;;16.60;99.90;;;;;;5034126;28;20376;-86
2023/08/02 00:44:42;;;;;;;11.60;2.42;;;16.50;99.90;;;;;;5009250;28;1105253;-87
2023/08/02 00:50:14;;;;;;;11.52;2.58;;;16.60;99.90;;;;;;5044763;28;20029;-84
2023/08/02 00:52:40;;;;;;;8.88;1.63;;;16.60;99.90;;;;;;5053002;28;20075;-87
2023/08/02 00:55:07;;;;;;;10.95;1.80;;;16.60;99.90;;;;;;5053696;28;20103;-85
2023/08/02 00:57:35;;;;;;;7.72;1.50;;;16.50;99.90;;;;;;5054812;28;20033;-82
2023/08/02 01:00:02;;;;;;;11.05;1.80;;;16.50;99.90;;;;;;5036693;28;20046;-82
2023/08/02 01:02:29;;;;;;;8.07;1.85;;;16.40;99.90;;;;;;5054333;28;20048;-83
2023/08/02 01:04:55;;;;;;;7.78;1.60;;;16.30;99.90;;;;;;5054413;28;20044;-87
2023/08/02 01:07:22;;;;;;;10.25;1.88;;;16.30;99.90;;;;;;5052569;28;20383;-83
2023/08/02 01:09:49;;;;;;;6.22;1.75;;;16.30;99.90;;;;;;5054556;28;20866;-83
2023/08/02 01:12:16;;;;;;;10.82;1.80;;;16.20;99.90;;;;;;5053167;28;20033;-87
2023/08/02 01:14:43;;;;;;;8.23;1.83;;;16.20;99.90;;;;;;5036886;28;20048;-86
2023/08/02 01:17:24;;;;;;;9.75;2.13;;;16.10;99.90;;;;;;5053614;28;20037;-83
2023/08/02 01:19:51;;;;;;;6.65;2.13;;;16.10;99.90;;;;;;5036453;28;20049;-85
2023/08/02 01:22:18;;;;;;;7.78;1.42;;;16.00;99.90;;;;;;5054389;28;20106;-82
2023/08/02 01:24:45;;;;;;;9.60;1.48;;;15.90;99.90;;;;;;5053447;28;20495;-86
2023/08/02 01:27:12;;;;;;;9.00;1.60;;;15.80;99.90;;;;;;5053065;28;20049;-85
2023/08/02 01:29:38;;;;;;;8.52;1.63;;;15.80;99.90;;;;;;5053547;28;20105;-81
2023/08/02 01:32:05;;;;;;;9.27;1.77;;;15.80;99.90;;;;;;5053505;28;20077;-82
2023/08/02 01:34:32;;;;;;;8.02;1.52;;;15.90;99.90;;;;;;5054078;28;20067;-84
2023/08/02 01:36:59;;;;;;;6.45;1.40;;;15.90;99.90;;;;;;5056481;28;20103;-83
2023/08/02 01:39:26;;;;;;;4.22;1.30;;;16.00;99.90;;;;;;5056309;28;20517;-87
2023/08/02 01:41:53;;;;;;;4.68;1.40;;;16.00;99.90;;;;;;5057113;28;20048;-86
2023/08/02 01:44:19;;;;;;;5.55;1.33;;;16.00;99.90;;;;;;5057897;28;20113;-83
2023/08/02 01:46:47;;;;;;;5.68;1.50;;;16.00;99.90;;;;;;5077280;28;20041;-85
2023/08/02 01:49:14;;;;;;;8.45;1.50;;;16.00;99.90;;;;;;5077820;28;20040;-81
2023/08/02 01:51:41;;;;;;;5.43;1.52;;;16.00;99.90;;;;;;5059824;28;20037;-83
2023/08/02 01:54:07;;;;;;;6.80;1.60;;;15.90;99.90;;;;;;5059218;28;20421;-84
2023/08/02 01:56:36;;;;;;;7.07;1.63;;;15.90;99.90;;;;;;5054541;28;20044;-78
2023/08/02 01:59:03;;;;;;;4.20;1.27;;;15.90;99.90;;;;;;5051045;28;20044;-81
2023/08/02 02:01:30;;;;;;;7.25;1.52;;;15.80;99.90;;;;;;5060067;28;20482;-84
2023/08/02 02:03:56;;;;;;;4.03;1.30;;;15.80;99.90;;;;;;5059174;28;20052;-84
2023/08/02 02:06:24;;;;;;;4.10;1.45;;;15.70;99.90;;;;;;5059186;28;20036;-83
2023/08/02 02:08:52;;;;;;;2.92;1.10;;;15.70;99.90;;;;;;5077464;28;20048;-86
2023/08/02 02:11:18;;;;;;;1.65;0.80;;;15.70;99.90;;;;;;5059255;28;20045;-83
2023/08/02 02:13:46;;;;;;;4.50;1.08;;;15.70;99.90;;;;;;5058747;28;20045;-85
2023/08/02 02:16:14;;;;;;;2.67;1.00;;;15.70;99.90;;;;;;5059729;28;20036;-81
2023/08/02 02:18:40;;;;;;;2.55;0.90;;;15.70;99.90;;;;;;5053030;28;20060;-81
2023/08/02 02:21:07;;;;;;;2.60;1.08;;;15.70;99.90;;;;;;5059295;28;20044;-80
2023/08/02 02:23:34;;;;;;;4.70;1.13;;;15.70;99.90;;;;;;5059129;28;20036;-83
2023/08/02 02:26:02;;;;;;;6.88;0.88;;;15.80;99.90;;;;;;5062329;28;20064;-84
2023/08/02 02:28:28;;;;;;;3.65;0.95;;;15.80;99.90;;;;;;5077038;28;20037;-80
2023/08/02 02:30:56;;;;;;;2.10;0.80;;;15.80;99.90;;;;;;5076453;28;20036;-81
2023/08/02 02:33:23;;;;;;;2.58;0.88;;;15.80;99.90;;;;;;5075760;28;20047;-83
2023/08/02 02:35:50;;;;;;;1.52;0.70;;;15.80;99.90;;;;;;5076539;28;20071;-81
2023/08/02 02:38:17;;;;;;;2.80;0.90;;;15.80;99.90;;;;;;5059006;28;20066;-86
2023/08/02 02:40:43;;;;;;;1.45;0.60;;;15.80;99.90;;;;;;5051229;28;20052;-82
2023/08/02 02:43:10;;;;;;;2.35;0.77;;;15.80;99.90;;;;;;5076654;28;20055;-86
2023/08/02 02:45:37;;;;;;;1.13;0.60;;;15.80;99.90;;;;;;5075946;28;20055;-83
2023/08/02 02:48:04;;;;;;;1.27;0.70;;;15.90;99.90;;;;;;5038088;28;20056;-84
2023/08/02 02:50:31;;;;;;;2.85;0.57;;;15.90;99.90;;;;;;5076444;28;20060;-82
2023/08/02 02:52:58;;;;;;;1.15;0.63;;;15.90;99.90;;;;;;5075255;28;20383;-86
2023/08/02 02:55:24;;;;;;;1.20;0.68;;;15.90;99.90;;;;;;5059200;28;20090;-84
2023/08/02 02:57:52;;;;;;;0.65;0.50;;;15.90;99.90;;;;;;5076052;28;20037;-83
2023/08/02 03:00:19;;;;;;;0.50;0.50;;;15.90;99.90;;;;;;5043041;28;20037;-80
2023/08/02 03:02:46;;;;;;;0.63;0.60;;;15.90;99.90;;;;;;5034270;28;20061;-84
2023/08/02 03:05:13;;;;;;;0.47;0.43;;;15.90;99.90;;;;;;5038734;28;20080;-80
2023/08/02 03:07:41;;;;;;;0.40;0.40;;;15.90;99.90;;;;;;5069395;28;20114;-84
2023/08/02 03:10:07;;;;;;;0.88;0.50;;;15.90;99.90;;;;;;5075779;28;20045;-85
2023/08/02 03:12:34;;;;;;;0.30;0.30;;;16.00;99.90;;;;;;5074794;28;20067;-82
2023/08/02 03:15:01;;;;;;;0.40;0.40;;;16.00;99.90;;;;;;5075739;28;20421;-84
2023/08/02 03:17:29;;;;;;;0.30;0.30;;;16.10;99.90;;;;;;5058026;28;20040;-80
2023/08/02 03:19:55;;;;;;;0.80;0.52;;;16.10;99.90;;;;;;5046275;28;20110;-82
2023/08/02 03:22:22;;;;;;;0.43;0.40;;;16.10;99.90;;;;;;5056744;28;20056;-84
2023/08/02 03:24:49;;;;;;;0.80;0.55;;;16.20;99.90;;;;;;5075276;28;20036;-83
2023/08/02 03:27:17;;;;;;;0.50;0.50;;;16.20;99.90;;;;;;5074754;28;20451;-81
2023/08/02 03:29:44;;;;;;;0.47;0.47;;;16.20;99.90;;;;;;5076096;28;20414;-85
2023/08/02 03:32:10;;;;;;;1.08;0.40;;;16.30;99.90;;;;;;5057034;28;20090;-82
2023/08/02 03:34:37;;;;;;;0.43;0.40;;;16.30;99.90;;;;;;5041507;28;20048;-81
2023/08/02 03:37:04;;;;;;;0.40;0.40;;;16.30;99.90;;;;;;5051370;28;20076;-83
2023/08/02 03:39:31;;;;;;;0.43;0.43;;;16.30;99.90;;;;;;5074446;28;20040;-87
2023/08/02 03:41:58;;;;;;;0.40;0.40;;;16.30;99.90;;;;;;5074909;28;20074;-84
2023/08/02 03:44:24;;;;;;;0.25;0.25;;;16.40;99.90;;;;;;5074736;28;20356;-84
2023/08/02 03:46:52;;;;;;;0.47;0.40;;;16.40;99.90;;;;;;5057304;28;20047;-84
2023/08/02 03:49:19;;;;;;;0.40;0.40;;;16.50;99.90;;;;;;5075225;28;20044;-84
2023/08/02 03:51:46;;;;;;;0.30;0.30;;;16.50;99.90;;;;;;5057729;28;20467;-83
2023/08/02 03:54:14;;;;;;;0.40;0.40;;;16.60;99.90;;;;;;5074046;28;20478;-85
2023/08/02 03:56:41;;;;;;;0.38;0.38;;;16.60;99.90;;;;;;5058056;28;20364;-83
2023/08/02 03:59:08;;;;;;;0.63;0.40;;;16.60;99.90;;;;;;5056672;28;20171;-83
2023/08/02 04:01:35;;;;;;;1.38;0.43;;;16.70;99.90;;;;;;5075050;28;20051;-85
2023/08/02 04:04:01;;;;;;;0.40;0.40;;;16.70;99.90;;;;;;5074752;28;20399;-83
2023/08/02 04:06:29;;;;;;;2.53;0.50;;;16.80;99.90;;;;;;5056150;28;20040;-83
2023/08/02 04:08:56;;;;;;;0.50;0.50;;;16.80;99.90;;;;;;5074769;28;20047;-83
2023/08/02 04:11:23;;;;;;;0.90;0.50;;;16.90;99.90;;;;;;5057114;28;20045;-86
2023/08/02 04:13:50;;;;;;;1.20;0.50;;;16.90;99.90;;;;;;5073708;28;20044;-82
2023/08/02 04:16:17;;;;;;;0.50;0.50;;;17.00;99.90;;;;;;5041051;28;20060;-83
2023/08/02 04:18:44;;;;;;;1.65;0.80;;;17.10;99.90;;;;;;5056339;28;20048;-84
2023/08/02 04:21:11;;;;;;;3.13;0.73;;;17.10;99.90;;;;;;5057362;28;20051;-87
2023/08/02 04:23:37;;;;;;;1.63;0.52;;;17.20;99.90;;;;;;5057319;28;20394;-82
2023/08/02 04:26:06;;;;;;;1.88;0.70;;;17.20;99.90;;;;;;5074070;28;20044;-83
2023/08/02 04:28:33;;;;;;;0.55;0.55;;;17.20;99.90;;;;;;5057088;28;20356;-82
2023/08/02 04:31:00;;;;;;;0.75;0.50;;;17.30;99.90;;;;;;5074622;28;20518;-87
2023/08/02 04:33:26;;;;;;;1.23;0.52;;;17.30;99.90;;;;;;5073792;28;20040;-84
2023/08/02 04:35:53;;;;;;;0.90;0.70;;;17.40;99.90;;;;;;5074561;28;20040;-79
2023/08/02 04:38:20;;;;;;;0.50;0.50;;;17.40;99.90;;;;;;5057787;28;20443;-82
2023/08/02 04:40:47;;;;;;;1.10;0.73;;;17.40;99.90;;;;;;5073955;28;20040;-83
2023/08/02 04:43:13;;;;;;;0.68;0.68;;;17.40;99.90;;;;;;5074322;28;20387;-81
2023/08/02 04:45:42;;;;;;;0.60;0.60;;;17.40;99.90;;;;;;5039507;28;20102;-83
2023/08/02 04:48:09;;;;;;;1.15;0.75;;;17.40;99.90;;;;;;5074367;28;20110;-84
2023/08/02 04:50:36;;;;;;;1.65;0.95;;;17.40;99.90;;;;;;5074785;28;20459;-83
2023/08/02 04:53:02;;;;;;;1.83;0.80;;;17.40;99.90;;;;;;5073698;28;20061;-81
2023/08/02 04:55:29;;;;;;;1.42;0.77;;;17.50;99.90;;;;;;5074505;28;20040;-83
2023/08/02 04:57:57;;;;;;;2.78;0.80;;;17.50;99.90;;;;;;5056598;28;20079;-83
2023/08/02 05:00:24;;;;;;;1.85;0.80;;;17.50;99.90;;;;;;5039242;28;20044;-81
2023/08/02 05:02:50;;;;;;;1.40;0.80;;;17.50;99.90;;;;;;5056588;28;20048;-87
2023/08/02 05:05:17;;;;;;;3.10;1.10;;;17.50;99.90;;;;;;5056237;28;20045;-83
2023/08/02 05:07:44;;;;;;;2.55;1.00;;;17.50;99.90;;;;;;5056419;28;20048;-85
2023/08/02 05:10:11;;;;;;;4.13;1.20;;;17.60;99.90;;;;;;5074472;28;20064;-83
2023/08/02 05:12:38;;;;;;;4.18;1.40;;;17.60;99.90;;;;;;5059534;28;20062;-81
2023/08/02 05:15:04;;;;;;;7.40;1.63;;;17.60;99.90;;;;;;5077826;28;20040;-83
2023/08/02 05:17:31;;;;;;;4.75;1.58;;;17.50;99.90;;;;;;5043774;28;20067;-83
2023/08/02 05:19:58;;;;;;;5.85;1.50;;;17.50;99.90;;;;;;5030601;28;20076;-84
2023/08/02 05:22:25;;;;;;;7.75;1.50;;;17.50;99.90;;;;;;5058848;28;20045;-84
2023/08/02 05:24:51;;;;;;;7.18;1.52;;;17.50;99.90;;;;;;5043488;28;20044;-81
2023/08/02 05:27:18;;;;;;;6.47;1.60;;;17.50;99.90;;;;;;5042835;28;20076;-83
2023/08/02 05:29:45;;;;;;;8.60;2.00;;;17.50;99.90;;;;;;5060235;28;20048;-84
2023/08/02 05:32:12;;;;;;;6.22;1.70;;;17.50;99.90;;;;;;5051888;28;20041;-85
2023/08/02 05:34:38;;;;;;;5.32;1.65;;;17.50;99.90;;;;;;5060077;28;20394;-83
2023/08/02 05:37:08;;;;;;;9.15;1.80;;;17.50;99.90;;;;;;5059857;28;20052;-83
2023/08/02 05:39:34;;;;;;;6.10;2.38;;;17.60;99.90;;;;;;5076709;28;20102;-81
2023/08/02 05:42:01;;;;;;;9.10;1.65;;;17.60;99.90;;;;;;5059608;28;20033;-85
2023/08/02 05:44:27;;;;;;;6.28;1.65;;;17.60;99.90;;;;;;5059284;28;20127;-81
2023/08/02 05:46:55;;;;;;;6.80;1.70;;;17.60;99.90;;;;;;5059438;28;20036;-80
2023/08/02 05:49:21;;;;;;;11.90;2.00;;;17.60;99.90;;;;;;5054896;28;20133;-85
2023/08/02 05:51:48;;;;;;;6.95;1.58;;;17.70;99.90;;;;;;5077239;28;20036;-85
2023/08/02 05:54:16;;;;;;;10.57;1.67;;;17.70;99.90;;;;;;5058407;28;20041;-82
2023/08/02 05:56:44;;;;;;;8.25;1.90;;;17.70;99.90;;;;;;5077701;28;20041;-82
2023/08/02 05:59:11;;;;;;;8.38;1.77;;;17.60;99.90;;;;;;5058829;28;20123;-82
2023/08/02 06:01:37;;;;;;;8.30;2.08;;;17.60;99.90;;;;;;5060052;28;20037;-85
2023/08/02 06:04:04;;;;;;;15.15;2.45;;;17.60;99.90;;;;;;5060170;28;20343;-84
2023/08/02 06:06:31;;;;;;;7.13;1.50;;;17.60;99.90;;;;;;5076215;28;20036;-81
2023/08/02 06:08:58;;;;;;;7.45;1.50;;;17.60;99.90;;;;;;5077246;28;20048;-81
2023/08/02 06:11:25;;;;;;;4.88;1.35;;;17.70;99.90;;;;;;5060037;28;20105;-81
2023/08/02 06:13:52;;;;;;;6.45;1.42;;;17.70;99.90;;;;;;5075750;28;20048;-81
2023/08/02 06:16:20;;;;;;;8.48;1.58;;;17.70;99.90;;;;;;5061688;28;20044;-84
2023/08/02 06:18:47;;;;;;;5.03;1.42;;;17.70;99.90;;;;;;5058811;28;20139;-84
2023/08/02 06:21:14;;;;;;;5.07;1.48;;;17.70;99.90;;;;;;5059944;28;20363;-86
2023/08/02 06:23:40;;;;;;;9.20;1.75;;;17.70;99.90;;;;;;5076553;28;20068;-82
2023/08/02 06:26:08;;;;;;;4.78;1.20;;;17.70;99.90;;;;;;5075739;28;20078;-85
2023/08/02 06:28:35;;;;;;;4.85;1.38;;;17.70;99.90;;;;;;5048972;28;20044;-81
2023/08/02 06:31:01;;;;;;;6.70;1.13;;;17.60;99.90;;;;;;5058645;28;20522;-85
2023/08/02 06:33:28;;;;;;;5.40;1.20;;;17.70;99.90;;;;;;5057862;28;20363;-83
2023/08/02 06:35:56;;;;;;;6.80;1.20;;;17.70;99.90;;;;;;5076671;28;20060;-83
2023/08/02 06:38:23;;;;;;;7.00;1.48;;;17.70;99.90;;;;;;5058720;28;20056;-82
2023/08/02 06:40:50;;;;;;;4.13;1.00;;;17.60;99.90;;;;;;5074168;28;20068;-85
2023/08/02 06:43:17;;;;;;;6.55;1.20;;;17.60;99.90;;;;;;5041579;28;20459;-85
2023/08/02 06:45:46;;;;;;;6.32;1.05;;;17.50;99.90;;;;;;5057680;28;20471;-85
2023/08/02 06:48:12;;;;;;;7.45;1.80;;;17.60;99.90;;;;;;5058994;28;20467;-83
2023/08/02 06:50:39;;;;;;;5.63;1.33;;;17.60;99.90;;;;;;5058472;28;20048;-85
2023/08/02 06:53:06;;;;;;;4.95;1.38;;;17.70;99.90;;;;;;5057484;28;20036;-84
2023/08/02 06:55:33;;;;;;;11.07;1.95;;;17.60;99.90;;;;;;5076073;28;20132;-87
2023/08/02 06:58:01;;;;;;;5.68;1.65;;;17.60;99.90;;;;;;5058173;28;20036;-84
2023/08/02 07:00:29;;;;;;;6.63;1.30;;;17.70;99.90;;;;;;5051620;28;20056;-84
2023/08/02 07:02:56;;;;;;;6.25;1.90;;;17.80;99.90;;;;;;5041364;28;20083;-82
2023/08/02 07:05:24;;;;;;;7.90;1.90;;;17.80;99.90;;;;;;5074400;28;20037;-83
2023/08/02 07:07:51;;;;;;;7.75;1.85;;;17.80;99.90;;;;;;5077424;28;20048;-86
2023/08/02 07:10:18;;;;;;;6.68;1.75;;;17.90;99.90;;;;;;5052248;28;20410;-82
2023/08/02 07:12:45;;;;;;;8.13;1.48;;;17.90;99.90;;;;;;5056961;28;20055;-84
2023/08/02 07:15:11;;;;;;;6.57;2.08;;;17.80;99.90;;;;;;5075801;28;20393;-84
2023/08/02 07:17:39;;;;;;;9.23;1.70;;;17.70;99.90;;;;;;5075528;28;20033;-84
2023/08/02 07:20:06;;;;;;;8.05;1.95;;;17.70;99.90;;;;;;5074655;28;20037;-84
2023/08/02 07:22:33;;;;;;;3.63;1.10;;;17.60;99.90;;;;;;5075256;28;20070;-81
2023/08/02 07:24:59;;;;;;;8.95;1.40;;;17.50;99.90;;;;;;5058146;28;20064;-85
2023/08/02 07:27:27;;;;;;;5.72;1.27;;;17.40;99.90;;;;;;5074646;28;20090;-84
2023/08/02 07:29:56;;;;;;;3.22;1.02;;;17.40;99.90;;;;;;5075438;28;20429;-83
2023/08/02 07:32:23;;;;;;;7.15;1.42;;;17.50;99.90;;;;;;5056167;28;20060;-84
2023/08/02 07:34:50;;;;;;;5.88;1.27;;;17.50;99.90;;;;;;5051595;28;20483;-81
2023/08/02 07:37:17;;;;;;;7.47;1.08;;;17.50;99.90;;;;;;5046129;28;20432;-81
2023/08/02 07:39:44;;;;;;;4.18;1.00;;;17.50;99.90;;;;;;5049738;28;20487;-81
2023/08/02 07:42:10;;;;;;;4.47;1.10;;;17.50;99.90;;;;;;5071381;28;20115;-86
2023/08/02 07:44:37;;;;;;;2.67;0.95;;;17.50;99.90;;;;;;5074521;28;20063;-83
2023/08/02 07:47:05;;;;;;;4.63;1.13;;;17.60;99.90;;;;;;5074043;28;20044;-82
2023/08/02 07:49:32;;;;;;;5.45;1.13;;;17.60;99.90;;;;;;5057404;28;20049;-86
2023/08/02 07:51:58;;;;;;;8.63;1.10;;;17.70;99.90;;;;;;5054636;28;20130;-82
2023/08/02 07:54:25;;;;;;;5.35;1.17;;;17.70;99.90;;;;;;5073967;28;20055;-85
2023/08/02 07:56:53;;;;;;;7.80;1.17;;;17.80;99.90;;;;;;5074434;28;20079;-81
2023/08/02 07:59:20;;;;;;;6.35;1.50;;;17.80;99.90;;;;;;5073530;28;20106;-82
2023/08/02 08:01:47;;;;;;;4.78;1.35;;;17.90;99.90;;;;;;5073703;28;20036;-85
2023/08/02 08:04:13;;;;;;;3.60;1.08;;;17.90;99.90;;;;;;5056932;28;20048;-87
2023/08/02 08:06:47;;;;;;;6.38;1.15;;;17.90;99.90;;;;;;5067433;28;20052;-84
2023/08/02 08:09:15;;;;;;;8.57;1.35;;;18.00;99.90;;;;;;5057818;28;20054;-84
2023/08/02 08:11:41;;;;;;;6.22;1.60;;;18.00;99.90;;;;;;5057268;28;20410;-84
2023/08/02 08:14:08;;;;;;;6.72;1.23;;;18.20;99.90;;;;;;5079032;28;20110;-84
2023/08/02 08:19:23;;;;;;;3.30;1.10;;;18.60;99.90;;;;;;5053407;28;20059;-84
2023/08/02 08:21:50;;;;;;;7.75;1.17;;;18.50;99.90;;;;;;5057050;28;20537;-84
2023/08/02 08:24:16;;;;;;;3.22;0.98;;;18.50;99.90;;;;;;5056882;28;20497;-84
2023/08/02 08:26:45;;;;;;;5.38;1.08;;;18.70;99.90;;;;;;5074554;28;20509;-82
2023/08/02 08:29:12;;;;;;;6.13;1.20;;;19.00;99.90;;;;;;5047555;28;20079;-82
2023/08/02 08:31:40;;;;;;;7.35;1.15;;;19.40;99.90;;;;;;5047128;28;20055;-84
2023/08/02 08:34:10;;;;;;;10.20;1.13;;;19.60;99.90;;;;;;5055321;28;20044;-83
2023/08/02 08:36:37;;;;;;;7.13;1.10;;;19.90;99.90;;;;;;5057132;28;20067;-85
2023/08/02 08:39:04;;;;;;;3.95;0.95;;;20.10;99.90;;;;;;5055841;28;20041;-85
2023/08/02 08:41:30;;;;;;;5.88;0.90;;;20.00;99.90;;;;;;5056112;28;20048;-84
2023/08/02 08:43:57;;;;;;;6.00;1.10;;;20.10;99.90;;;;;;5040098;28;20098;-85
2023/08/02 08:46:24;;;;;;;4.97;1.23;;;20.30;99.90;;;;;;5035049;28;20106;-86
2023/08/02 08:48:51;;;;;;;11.60;1.35;;;20.30;99.90;;;;;;5057732;28;20352;-86
2023/08/02 08:51:18;;;;;;;6.03;1.13;;;20.50;99.90;;;;;;5057692;28;20045;-84
2023/08/02 08:53:44;;;;;;;8.93;1.58;;;20.70;99.90;;;;;;5039787;28;20120;-84
2023/08/02 08:56:13;;;;;;;8.02;1.30;;;20.90;99.90;;;;;;5058338;28;20049;-80
2023/08/02 08:58:40;;;;;;;3.53;0.90;;;20.90;99.90;;;;;;5057407;28;20115;-83
2023/08/02 09:01:07;;;;;;;6.25;1.20;;;21.00;99.90;;;;;;5058384;28;20099;-83
2023/08/02 09:03:34;;;;;;;7.85;1.40;;;20.90;99.90;;;;;;5056872;28;20052;-81
2023/08/02 09:06:03;;;;;;;7.45;1.30;;;20.90;99.90;;;;;;5056459;28;20135;-82
2023/08/02 09:08:29;;;;;;;3.92;0.93;;;21.00;99.90;;;;;;5058466;28;20127;-81
2023/08/02 09:10:56;;;;;;;5.30;1.13;;;21.20;99.90;;;;;;5056128;28;20518;-83
2023/08/02 09:13:23;;;;;;;4.57;1.00;;;20.90;99.90;;;;;;5056884;28;20068;-84
2023/08/02 09:15:50;;;;;;;5.80;1.05;;;21.00;99.90;;;;;;5057703;28;20029;-85
2023/08/02 09:18:17;;;;;;;5.75;1.23;;;20.30;99.90;;;;;;5056897;28;20134;-82
2023/08/02 09:20:44;;;;;;;3.92;0.88;;;19.80;99.90;;;;;;5055848;28;20383;-81
2023/08/02 09:23:10;;;;;;;3.83;1.00;;;19.10;99.90;;;;;;5057405;28;20037;-83
2023/08/02 09:25:37;;;;;;;1.95;0.77;;;18.90;99.90;;;;;;5053034;28;20095;-86
2023/08/02 09:28:04;;;;;;;3.67;1.10;;;18.70;99.90;;;;;;5036743;28;20457;-83
2023/08/02 09:30:32;;;;;;;1.52;0.65;;;18.70;99.90;;;;;;5052186;28;20557;-82
2023/08/02 09:32:59;;;;;;;5.25;1.00;;;18.80;99.90;;;;;;5055774;28;20059;-84
2023/08/02 09:35:26;;;;;;;4.35;0.90;;;19.10;99.90;;;;;;5043641;28;20115;-84
2023/08/02 09:40:40;;;;;;;2.30;0.90;;;19.50;99.90;;;;;;5056930;28;20048;-83
2023/08/02 09:43:27;;;;;;;6.30;1.00;;;19.90;99.90;;;;;;5056678;28;20047;-82
2023/08/02 09:45:54;;;;;;;8.07;1.33;;;20.20;99.90;;;;;;5059338;28;20080;-82
2023/08/02 09:48:21;;;;;;;5.25;1.10;;;20.30;99.90;;;;;;5056243;28;20510;-82
2023/08/02 09:50:48;;;;;;;5.30;1.35;;;20.50;99.90;;;;;;5056245;28;20041;-83
2023/08/02 09:53:17;;;;;;;6.97;1.40;;;20.90;99.90;;;;;;5056103;28;20127;-85
2023/08/02 09:55:45;;;;;;;7.65;1.52;;;20.90;99.90;;;;;;5056028;28;20056;-82
2023/08/02 09:58:11;;;;;;;6.50;1.30;;;20.80;99.90;;;;;;5057017;28;20451;-83
2023/08/02 10:00:38;;;;;;;9.23;1.63;;;20.70;99.90;;;;;;5056105;28;20430;-83
2023/08/02 10:03:05;;;;;;;6.63;1.35;;;20.80;99.90;;;;;;5057398;28;20048;-81
2023/08/02 10:05:50;;;;;;;8.63;1.23;;;20.90;99.90;;;;;;5056350;28;20099;-85
2023/08/02 10:08:17;;;;;;;4.88;1.10;;;21.20;99.90;;;;;;5057208;28;20124;-86
2023/08/02 10:10:44;;;;;;;8.32;1.50;;;21.20;99.90;;;;;;5057149;28;20069;-83
2023/08/02 10:13:11;;;;;;;5.35;1.10;;;21.10;99.90;;;;;;5055801;28;20033;-85
2023/08/02 10:15:40;;;;;;;7.03;1.17;;;20.70;99.90;;;;;;5057703;28;20057;-85
2023/08/02 10:18:07;;;;;;;8.68;1.77;;;20.50;99.90;;;;;;5057412;28;20033;-84
2023/08/02 10:20:34;;;;;;;8.57;1.65;;;20.80;99.90;;;;;;5056179;28;20337;-84
2023/08/02 10:23:00;;;;;;;11.40;2.08;;;21.20;99.90;;;;;;5056269;28;20412;-83
2023/08/02 10:25:27;;;;;;;8.98;1.50;;;21.60;99.90;;;;;;5056236;28;20371;-83
2023/08/02 10:27:56;;;;;;;12.57;1.85;;;21.80;99.90;;;;;;5057022;28;20045;-83
2023/08/02 10:30:22;;;;;;;9.43;2.13;;;21.90;99.90;;;;;;5056637;28;20107;-87
2023/08/02 10:32:49;;;;;;;6.68;1.83;;;22.20;99.90;;;;;;5048122;28;20076;-86
2023/08/02 10:35:16;;;;;;;12.00;2.33;;;22.00;99.90;;;;;;5048759;28;20051;-84
2023/08/02 10:40:30;;;;;;;14.77;1.85;;;21.30;99.90;;;;;;5055673;28;20114;-82
2023/08/02 10:42:56;;;;;;;10.02;1.92;;;21.00;99.90;;;;;;5056250;28;20394;-86
2023/08/02 10:45:23;;;;;;;11.73;2.22;;;20.80;99.90;;;;;;5065135;28;20345;-81
2023/08/02 10:47:50;;;;;;;12.43;2.22;;;20.30;99.90;;;;;;5076690;28;20071;-82
2023/08/02 10:50:18;;;;;;;10.52;1.88;;;19.60;99.90;;;;;;5059177;28;20037;-83
2023/08/02 10:52:45;;;;;;;9.02;1.63;;;19.00;99.90;;;;;;5075469;28;20049;-82
2023/08/02 10:55:12;;;;;;;12.40;1.75;;;18.90;99.90;;;;;;5076047;28;20044;-87
2023/08/02 10:57:39;;;;;;;7.95;1.33;;;19.60;99.90;;;;;;5076318;28;20395;-81
2023/08/02 11:00:06;;;;;;;7.38;1.38;;;19.90;99.90;;;;;;5057582;28;20098;-86
2023/08/02 11:02:33;;;;;;;8.05;1.50;;;19.80;99.90;;;;;;5041642;28;20076;-88
2023/08/02 11:04:59;;;;;;;6.32;1.50;;;19.60;99.90;;;;;;5075501;28;20537;-88
2023/08/02 11:07:26;;;;;;;10.98;1.90;;;19.50;99.90;;;;;;5075017;28;20044;-86
2023/08/02 11:09:54;;;;;;;5.00;1.20;;;19.60;99.90;;;;;;5075315;28;20417;-86
2023/08/02 11:12:21;;;;;;;7.95;1.50;;;19.70;99.90;;;;;;5061248;28;20540;-83
2023/08/02 11:14:49;;;;;;;6.53;1.60;;;19.70;99.90;;;;;;5058247;28;20445;-83
2023/08/02 11:17:15;;;;;;;7.95;1.30;;;19.80;99.90;;;;;;5040631;28;20091;-85
2023/08/02 11:19:43;;;;;;;9.63;1.35;;;20.00;99.90;;;;;;5054270;28;20059;-85
2023/08/02 11:22:29;;;;;;;12.75;2.33;;;20.10;99.90;;;;;;5056097;28;20048;-85
2023/08/02 11:24:56;;;;;;;9.63;2.00;;;20.00;99.90;;;;;;5058244;28;20408;-85
2023/08/02 11:30:11;;;;;;;9.27;2.22;;;20.00;99.90;;;;;;5068387;28;20099;-84
2023/08/02 11:32:38;;;;;;;10.02;1.50;;;20.00;99.90;;;;;;5074569;28;20048;-84
2023/08/02 11:35:05;;;;;;;7.97;2.05;;;19.90;99.90;;;;;;5040485;28;20513;-83
2023/08/02 11:37:32;;;;;;;11.77;2.03;;;19.80;99.90;;;;;;5075037;28;20044;-87
2023/08/02 11:39:58;;;;;;;10.07;1.90;;;19.60;99.90;;;;;;5065718;28;20067;-83
2023/08/02 11:42:45;;;;;;;10.27;2.00;;;19.40;99.90;;;;;;5062643;28;20051;-83
2023/08/02 11:45:12;;;;;;;13.52;1.63;;;19.30;99.90;;;;;;5057357;28;20521;-84
2023/08/02 11:47:49;;;;;;;8.45;1.60;;;19.30;99.90;;;;;;5074422;28;20470;-86
2023/08/02 11:50:22;;;;;;;12.82;1.70;;;19.40;99.90;;;;;;5074984;28;20040;-82
2023/08/02 11:52:49;;;;;;;14.80;2.13;;;19.40;99.90;;;;;;5074080;28;20099;-85
2023/08/02 11:55:15;;;;;;;14.77;1.77;;;19.50;99.90;;;;;;5074525;28;20044;-86
2023/08/02 11:57:43;;;;;;;7.28;1.50;;;19.50;99.90;;;;;;5074672;28;20041;-82
2023/08/02 12:00:11;;;;;;;12.93;2.05;;;19.50;99.90;;;;;;5074709;28;20036;-82
2023/08/02 12:02:37;;;;;;;9.45;1.50;;;19.50;99.90;;;;;;5075154;28;20049;-89
2023/08/02 12:05:08;;;;;;;11.77;2.42;;;19.50;99.90;;;;;;5074951;28;20062;-82
2023/08/02 12:07:37;;;;;;;7.45;1.90;;;19.50;99.90;;;;;;5074347;28;20080;-86
2023/08/02 12:10:07;;;;;;;13.73;1.73;;;19.40;99.90;;;;;;5073197;28;20040;-85
2023/08/02 12:12:33;;;;;;;11.65;1.85;;;19.30;99.90;;;;;;5056984;28;20102;-88
2023/08/02 12:15:00;;;;;;;9.02;2.20;;;19.30;99.90;;;;;;5057717;28;20098;-88
2023/08/02 12:20:13;;;;;;;4.85;1.20;;;19.60;99.90;;;;;;5073962;28;20044;-85
2023/08/02 12:22:40;;;;;;;7.13;1.02;;;19.50;99.90;;;;;;5040614;28;20049;-83
2023/08/02 12:25:07;;;;;;;7.25;1.58;;;19.40;99.90;;;;;;5056868;28;20049;-82
2023/08/02 12:27:35;;;;;;;7.07;1.35;;;19.40;99.90;;;;;;5074098;28;20064;-84
2023/08/02 12:30:02;;;;;;;3.85;1.10;;;19.40;99.90;;;;;;5057191;28;20041;-87
2023/08/02 12:32:29;;;;;;;2.50;0.80;;;19.40;99.90;;;;;;5073707;28;20044;-87
2023/08/02 12:34:55;;;;;;;5.65;1.02;;;19.10;99.90;;;;;;5057173;28;20337;-84
2023/08/02 12:37:37;;;;;;;6.30;1.10;;;18.80;99.90;;;;;;5059173;28;20036;-86
2023/08/02 12:40:04;;;;;;;3.60;0.98;;;18.30;99.90;;;;;;5073384;28;20043;-83
2023/08/02 12:42:31;;;;;;;9.35;1.13;;;18.00;99.90;;;;;;5057134;28;20040;-86
2023/08/02 12:45:00;;;;;;;8.00;1.52;;;17.70;99.90;;;;;;5074434;28;20059;-82
2023/08/02 12:47:43;;;;;;;7.07;1.00;;;17.60;99.90;;;;;;5057093;28;20055;-85
2023/08/02 12:50:10;;;;;;;6.85;1.20;;;17.60;99.90;;;;;;5077697;28;20044;-85
2023/08/02 12:52:36;;;;;;;4.70;0.90;;;17.60;99.90;;;;;;5073053;28;20119;-83
2023/08/02 12:55:03;;;;;;;4.47;1.00;;;17.70;99.90;;;;;;5056747;28;20204;-84
2023/08/02 12:57:32;;;;;;;3.00;0.88;;;17.80;99.90;;;;;;5056536;28;20047;-83
2023/08/02 12:59:59;;;;;;;4.22;0.77;;;17.80;99.90;;;;;;5073963;28;20064;-91
2023/08/02 13:02:26;;;;;;;1.48;0.70;;;17.80;99.90;;;;;;5068884;28;20509;-87
2023/08/02 13:04:53;;;;;;;3.72;1.02;;;17.60;99.90;;;;;;5090713;28;20055;-83
2023/08/02 13:07:22;;;;;;;4.75;0.77;;;17.50;99.90;;;;;;5057364;28;20356;-83